Time,TemperatureF,DewpointF,PressureIn,WindDirection,WindDirectionDegrees,WindSpeedMPH,WindSpeedGustMPH,Humidity,HourlyPrecipIn,Conditions,Clouds,dailyrainin,SolarRadiationWatts/m^2,SoftwareType,DateUTC
2013-06-14 00:23:00,63.0,51.0,-100.00,NW,304,4.0,15.0,66,0.00,,,0.46,0.000000,,2013-06-14 04:23:00,
2013-06-14 00:33:00,63.0,51.0,-100.00,NW,304,4.0,15.0,66,0.00,,,0.46,0.000000,,2013-06-14 04:33:00,
2013-06-14 00:43:00,63.0,51.0,-100.00,NW,304,4.0,15.0,66,0.00,,,0.46,0.000000,,2013-06-14 04:43:00,
2013-06-14 01:11:00,62.0,52.0,-100.00,NW,311,6.0,12.0,71,0.00,,,0.46,0.000000,,2013-06-14 05:11:00,
2013-06-14 01:22:00,62.0,52.0,-100.00,NW,311,6.0,12.0,71,0.00,,,0.46,0.000000,,2013-06-14 05:22:00,
2013-06-14 01:34:00,62.0,52.0,-100.00,NW,311,6.0,12.0,71,0.00,,,0.46,0.000000,,2013-06-14 05:34:00,
2013-06-14 01:43:00,62.0,52.0,-100.00,NW,311,6.0,12.0,71,0.00,,,0.46,0.000000,,2013-06-14 05:43:00,
2013-06-14 02:12:00,61.0,51.0,-100.00,NNW,337,5.0,13.0,69,0.00,,,0.46,0.000000,,2013-06-14 06:12:00,
2013-06-14 02:22:00,61.0,51.0,-100.00,NNW,337,5.0,13.0,69,0.00,,,0.46,0.000000,,2013-06-14 06:22:00,
2013-06-14 02:33:00,61.0,51.0,-100.00,NNW,337,5.0,13.0,69,0.00,,,0.46,0.000000,,2013-06-14 06:33:00,
2013-06-14 02:43:00,61.0,51.0,-100.00,NNW,337,5.0,13.0,69,0.00,,,0.46,0.000000,,2013-06-14 06:43:00,
2013-06-14 03:12:00,58.0,51.0,-100.00,West,273,3.0,6.0,78,0.00,,,0.46,0.000000,,2013-06-14 07:12:00,
2013-06-14 03:22:00,58.0,51.0,-100.00,West,273,3.0,6.0,78,0.00,,,0.46,0.000000,,2013-06-14 07:22:00,
2013-06-14 03:33:00,58.0,51.0,-100.00,West,273,3.0,6.0,78,0.00,,,0.46,0.000000,,2013-06-14 07:33:00,
2013-06-14 03:43:00,58.0,51.0,-100.00,West,273,3.0,6.0,78,0.00,,,0.46,0.000000,,2013-06-14 07:43:00,
2013-06-14 04:12:00,54.0,52.0,-100.00,WNW,290,0.0,5.0,92,0.00,,,-99.99,0.000000,,2013-06-14 08:12:00,
2013-06-14 04:23:00,54.0,52.0,-100.00,WNW,290,0.0,5.0,92,0.00,,,-99.99,0.000000,,2013-06-14 08:23:00,
2013-06-14 04:33:00,54.0,52.0,-100.00,WNW,290,0.0,5.0,92,0.00,,,-99.99,0.000000,,2013-06-14 08:33:00,
2013-06-14 04:43:00,54.0,52.0,-100.00,WNW,290,0.0,5.0,92,0.00,,,-99.99,0.000000,,2013-06-14 08:43:00,
2013-06-14 05:12:00,52.0,51.0,-100.00,WNW,292,1.0,3.0,96,0.00,,,0.46,0.000000,,2013-06-14 09:12:00,
2013-06-14 05:22:00,52.0,51.0,-100.00,WNW,292,1.0,3.0,96,0.00,,,0.46,0.000000,,2013-06-14 09:22:00,
2013-06-14 05:33:00,52.0,51.0,-100.00,WNW,292,1.0,3.0,96,0.00,,,0.46,0.000000,,2013-06-14 09:33:00,
2013-06-14 05:43:00,52.0,51.0,-100.00,WNW,292,1.0,3.0,96,0.00,,,0.46,0.000000,,2013-06-14 09:43:00,
2013-06-14 06:12:00,51.0,50.0,-100.00,West,269,3.0,5.0,97,0.00,,,0.46,0.000000,,2013-06-14 10:12:00,
2013-06-14 06:22:00,51.0,50.0,-100.00,West,269,3.0,5.0,97,0.00,,,0.46,0.000000,,2013-06-14 10:22:00,
2013-06-14 06:34:00,51.0,50.0,-100.00,West,269,3.0,5.0,97,0.00,,,0.46,0.000000,,2013-06-14 10:34:00,
2013-06-14 06:43:00,51.0,50.0,-100.00,West,269,3.0,5.0,97,0.00,,,0.46,0.000000,,2013-06-14 10:43:00,
2013-06-14 07:23:00,54.0,53.0,-100.00,WNW,302,3.0,5.0,97,0.00,,,0.46,10.000000,,2013-06-14 11:23:00,
2013-06-14 07:32:00,54.0,53.0,-100.00,WNW,302,3.0,5.0,97,0.00,,,0.46,10.000000,,2013-06-14 11:32:00,
2013-06-14 07:43:00,54.0,53.0,-100.00,WNW,302,3.0,5.0,97,0.00,,,0.46,10.000000,,2013-06-14 11:43:00,
2013-06-14 08:22:00,59.0,55.0,-100.00,NNE,18,3.0,7.0,87,0.00,,,0.46,139.000000,,2013-06-14 12:22:00,
2013-06-14 08:33:00,59.0,55.0,-100.00,NNE,18,3.0,7.0,87,0.00,,,0.46,139.000000,,2013-06-14 12:33:00,
2013-06-14 08:43:00,59.0,55.0,-100.00,NNE,18,3.0,7.0,87,0.00,,,0.46,139.000000,,2013-06-14 12:43:00,
2013-06-14 09:12:00,63.0,56.0,-100.00,NNE,20,6.0,9.0,79,0.00,,,0.34,327.000000,,2013-06-14 13:12:00,
2013-06-14 09:22:00,63.0,56.0,-100.00,NNE,20,6.0,9.0,79,0.00,,,0.34,327.000000,,2013-06-14 13:22:00,
2013-06-14 09:33:00,63.0,56.0,-100.00,NNE,20,6.0,9.0,79,0.00,,,0.34,327.000000,,2013-06-14 13:33:00,
2013-06-14 09:43:00,63.0,56.0,-100.00,NNE,20,6.0,9.0,79,0.00,,,0.34,327.000000,,2013-06-14 13:43:00,
2013-06-14 10:11:00,67.0,58.0,-100.00,NNE,23,4.0,9.0,73,0.00,,,0.01,544.000000,,2013-06-14 14:11:00,
2013-06-14 10:22:00,67.0,58.0,-100.00,NNE,23,4.0,9.0,73,0.00,,,0.01,544.000000,,2013-06-14 14:22:00,
2013-06-14 10:34:00,67.0,58.0,-100.00,NNE,23,4.0,9.0,73,0.00,,,0.01,544.000000,,2013-06-14 14:34:00,
2013-06-14 10:43:00,67.0,58.0,-100.00,NNE,23,4.0,9.0,73,0.00,,,0.01,544.000000,,2013-06-14 14:43:00,
2013-06-14 11:11:00,70.0,59.0,-100.00,NNE,17,5.0,9.0,69,0.00,,,0.01,734.000000,,2013-06-14 15:11:00,
2013-06-14 11:23:00,70.0,59.0,-100.00,NNE,17,5.0,9.0,69,0.00,,,0.01,734.000000,,2013-06-14 15:23:00,
2013-06-14 11:33:00,70.0,59.0,-100.00,NNE,17,5.0,9.0,69,0.00,,,0.01,734.000000,,2013-06-14 15:33:00,
2013-06-14 11:44:00,70.0,59.0,-100.00,NNE,17,5.0,9.0,69,0.00,,,0.01,734.000000,,2013-06-14 15:44:00,
2013-06-14 12:23:00,75.0,60.0,-100.00,NNW,345,3.0,10.0,60,0.00,,,0.01,908.000000,,2013-06-14 16:23:00,
2013-06-14 12:33:00,75.0,60.0,-100.00,NNW,345,3.0,10.0,60,0.00,,,0.01,908.000000,,2013-06-14 16:33:00,
2013-06-14 12:43:00,75.0,60.0,-100.00,NNW,345,3.0,10.0,60,0.00,,,0.01,908.000000,,2013-06-14 16:43:00,
2013-06-14 13:12:00,76.0,58.0,-100.00,NNE,13,5.0,10.0,53,0.00,,,0.01,1066.000000,,2013-06-14 17:12:00,
2013-06-14 13:22:00,76.0,58.0,-100.00,NNE,13,5.0,10.0,53,0.00,,,0.01,1066.000000,,2013-06-14 17:22:00,
2013-06-14 13:34:00,76.0,58.0,-100.00,NNE,13,5.0,10.0,53,0.00,,,0.01,1066.000000,,2013-06-14 17:34:00,
2013-06-14 13:43:00,76.0,58.0,-100.00,NNE,13,5.0,10.0,53,0.00,,,0.01,1066.000000,,2013-06-14 17:43:00,
2013-06-14 14:11:00,77.0,59.0,-100.00,NW,304,4.0,13.0,53,0.00,,,0.01,903.000000,,2013-06-14 18:11:00,
2013-06-14 14:22:00,77.0,59.0,-100.00,NW,304,4.0,13.0,53,0.00,,,0.01,903.000000,,2013-06-14 18:22:00,
2013-06-14 14:32:00,77.0,59.0,-100.00,NW,304,4.0,13.0,53,0.00,,,0.01,903.000000,,2013-06-14 18:32:00,
2013-06-14 14:43:00,77.0,59.0,-100.00,NW,304,4.0,13.0,53,0.00,,,0.01,903.000000,,2013-06-14 18:43:00,
2013-06-14 15:11:00,79.0,58.0,-100.00,North,359,5.0,14.0,48,0.00,,,0.00,979.000000,,2013-06-14 19:11:00,
2013-06-14 15:22:00,79.0,58.0,-100.00,North,359,5.0,14.0,48,0.00,,,0.00,979.000000,,2013-06-14 19:22:00,
2013-06-14 15:32:00,79.0,58.0,-100.00,North,359,5.0,14.0,48,0.00,,,0.00,979.000000,,2013-06-14 19:32:00,
2013-06-14 15:43:00,79.0,58.0,-100.00,North,359,5.0,14.0,48,0.00,,,0.00,979.000000,,2013-06-14 19:43:00,
2013-06-14 16:22:00,81.0,56.0,-100.00,NW,321,4.0,12.0,42,0.00,,,0.00,986.000000,,2013-06-14 20:22:00,
2013-06-14 16:33:00,81.0,56.0,-100.00,NW,321,4.0,12.0,42,0.00,,,0.00,986.000000,,2013-06-14 20:33:00,
2013-06-14 16:43:00,81.0,56.0,-100.00,NW,321,4.0,12.0,42,0.00,,,0.00,986.000000,,2013-06-14 20:43:00,
2013-06-14 17:12:00,81.0,55.0,-100.00,North,7,4.0,8.0,41,0.00,,,0.00,852.000000,,2013-06-14 21:12:00,
2013-06-14 17:22:00,81.0,55.0,-100.00,North,7,4.0,8.0,41,0.00,,,0.00,852.000000,,2013-06-14 21:22:00,
2013-06-14 17:34:00,81.0,55.0,-100.00,North,7,4.0,8.0,41,0.00,,,0.00,852.000000,,2013-06-14 21:34:00,
2013-06-14 17:42:00,81.0,55.0,-100.00,North,7,4.0,8.0,41,0.00,,,0.00,852.000000,,2013-06-14 21:42:00,
2013-06-14 18:12:00,81.0,54.0,-100.00,North,10,3.0,12.0,40,0.00,,,0.00,739.000000,,2013-06-14 22:12:00,
2013-06-14 18:22:00,81.0,54.0,-100.00,North,10,3.0,12.0,40,0.00,,,0.00,739.000000,,2013-06-14 22:22:00,
2013-06-14 18:33:00,81.0,54.0,-100.00,North,10,3.0,12.0,40,0.00,,,0.00,739.000000,,2013-06-14 22:33:00,
2013-06-14 18:43:00,81.0,54.0,-100.00,North,10,3.0,12.0,40,0.00,,,0.00,739.000000,,2013-06-14 22:43:00,
2013-06-14 19:12:00,79.0,55.0,-100.00,NW,314,6.0,9.0,44,0.00,,,0.00,535.000000,,2013-06-14 23:12:00,
2013-06-14 19:22:00,79.0,55.0,-100.00,NW,314,6.0,9.0,44,0.00,,,0.00,535.000000,,2013-06-14 23:22:00,
2013-06-14 19:33:00,79.0,55.0,-100.00,NW,314,6.0,9.0,44,0.00,,,0.00,535.000000,,2013-06-14 23:33:00,
2013-06-14 19:43:00,79.0,55.0,-100.00,NW,314,6.0,9.0,44,0.00,,,0.00,535.000000,,2013-06-14 23:43:00,
2013-06-14 20:11:00,76.0,60.0,-100.00,NW,310,2.0,8.0,57,0.00,,,0.00,238.000000,,2013-06-15 00:11:00,
2013-06-14 20:23:00,76.0,60.0,-100.00,NW,310,2.0,8.0,57,0.00,,,0.00,238.000000,,2013-06-15 00:23:00,
2013-06-14 20:34:00,76.0,60.0,-100.00,NW,310,2.0,8.0,57,0.00,,,0.00,238.000000,,2013-06-15 00:34:00,
2013-06-14 20:43:00,76.0,60.0,-100.00,NW,310,2.0,8.0,57,0.00,,,0.00,238.000000,,2013-06-15 00:43:00,
2013-06-14 21:11:00,69.0,61.0,-100.00,West,261,0.0,2.0,77,0.00,,,0.00,66.000000,,2013-06-15 01:11:00,
2013-06-14 21:22:00,69.0,61.0,-100.00,West,261,0.0,2.0,77,0.00,,,0.00,66.000000,,2013-06-15 01:22:00,
2013-06-14 21:33:00,69.0,61.0,-100.00,West,261,0.0,2.0,77,0.00,,,0.00,66.000000,,2013-06-15 01:33:00,
2013-06-14 21:43:00,69.0,61.0,-100.00,West,261,0.0,2.0,77,0.00,,,0.00,66.000000,,2013-06-15 01:43:00,
2013-06-14 22:43:00,64.0,61.0,-100.00,North,352,0.0,2.0,89,0.00,,,0.00,4.000000,,2013-06-15 02:43:00,
2013-06-14 23:24:00,61.0,60.0,-100.00,WNW,302,0.0,0.0,95,0.00,,,0.00,0.000000,,2013-06-15 03:24:00,
2013-06-14 23:32:00,61.0,60.0,-100.00,WNW,302,0.0,0.0,95,0.00,,,0.00,0.000000,,2013-06-15 03:32:00,
2013-06-14 23:44:00,61.0,60.0,-100.00,WNW,302,0.0,0.0,95,0.00,,,0.00,0.000000,,2013-06-15 03:44:00,